Time;durP1;ratioP1;P1;durP2;ratioP2;P2;SDS_P1;SDS_P2;PMS_P1;PMS_P2;Temp;Humidity;BMP_temperature;BMP_pressure;BME280_temperature;BME280_humidity;BME280_pressure;Samples;Min_cycle;Max_cycle;Signal;HPM_P1;HPM_P2
2022/06/04 00:02:16;;;;;;;2.43;0.40;;;;;;;;;;5344834;27;20015;-70
2022/06/04 00:04:47;;;;;;;2.53;0.43;;;;;;;;;;5345097;27;20253;-70
2022/06/04 00:07:18;;;;;;;2.67;0.60;;;;;;;;;;5343945;27;20045;-70
2022/06/04 00:15:30;;;;;;;4.85;0.47;;;;;;;;;;5344721;28;20015;-70
2022/06/04 00:18:01;;;;;;;1.35;0.50;;;;;;;;;;5344892;28;20338;-70
2022/06/04 00:20:32;;;;;;;5.18;0.60;;;;;;;;;;5344119;27;20102;-70
2022/06/04 00:23:04;;;;;;;3.53;0.50;;;;;;;;;;5344898;28;20019;-70
2022/06/04 00:25:36;;;;;;;4.25;0.50;;;;;;;;;;5344715;27;20026;-70
2022/06/04 00:28:09;;;;;;;1.92;0.50;;;;;;;;;;5343886;27;20019;-70
2022/06/04 00:30:40;;;;;;;2.70;0.40;;;;;;;;;;5344680;28;20015;-70
2022/06/04 00:33:11;;;;;;;2.40;0.60;;;;;;;;;;5343972;27;20523;-70
2022/06/04 00:35:44;;;;;;;1.67;0.40;;;;;;;;;;5344841;28;20015;-69
2022/06/04 00:38:16;;;;;;;4.18;0.60;;;;;;;;;;5344742;28;20377;-70
2022/06/04 00:40:53;;;;;;;1.52;0.45;;;;;;;;;;5343785;27;20038;-69
2022/06/04 00:43:25;;;;;;;1.80;0.50;;;;;;;;;;5344175;28;20023;-70
2022/06/04 00:46:14;;;;;;;5.20;0.50;;;;;;;;;;5344830;28;20497;-69
2022/06/04 00:48:46;;;;;;;3.00;0.50;;;;;;;;;;5343841;27;20027;-69
2022/06/04 00:51:17;;;;;;;5.80;0.77;;;;;;;;;;5344366;27;20152;-70
2022/06/04 00:53:48;;;;;;;2.60;0.50;;;;;;;;;;5347368;27;20019;-69
2022/06/04 00:56:25;;;;;;;1.60;0.50;;;;;;;;;;5347612;27;20056;-70
2022/06/04 00:59:15;;;;;;;2.28;0.50;;;;;;;;;;5349038;27;20424;-70
2022/06/04 01:02:05;;;;;;;2.58;0.40;;;;;;;;;;5347853;27;20426;-70
2022/06/04 01:04:48;;;;;;;2.70;0.50;;;;;;;;;;5348644;27;20110;-69
2022/06/04 01:07:22;;;;;;;7.13;0.50;;;;;;;;;;5348066;27;20023;-70
2022/06/04 01:10:02;;;;;;;3.25;0.50;;;;;;;;;;5347807;27;20061;-69
2022/06/04 01:12:40;;;;;;;2.17;0.50;;;;;;;;;;5348113;27;20031;-70
2022/06/04 01:15:19;;;;;;;1.75;0.50;;;;;;;;;;5348301;27;20015;-70
2022/06/04 01:18:07;;;;;;;2.17;0.60;;;;;;;;;;5348413;27;20047;-70
2022/06/04 01:20:49;;;;;;;2.03;0.60;;;;;;;;;;5348459;27;20069;-70
2022/06/04 01:23:32;;;;;;;1.80;0.50;;;;;;;;;;5347156;27;20027;-70
2022/06/04 01:26:34;;;;;;;2.08;0.65;;;;;;;;;;5347975;27;20084;-70
2022/06/04 01:29:09;;;;;;;2.17;0.70;;;;;;;;;;5347948;27;20031;-70
2022/06/04 01:31:44;;;;;;;1.63;0.50;;;;;;;;;;5347345;27;20022;-70
2022/06/04 01:34:18;;;;;;;4.03;0.50;;;;;;;;;;5347719;27;20022;-70
2022/06/04 01:37:00;;;;;;;2.97;0.50;;;;;;;;;;5347371;27;20027;-70
2022/06/04 01:41:03;;;;;;;3.15;0.52;;;;;;;;;;5347413;27;20110;-70
2022/06/04 01:42:27;;;;;;;1.73;0.60;;;;;;;;;;5347256;27;20474;-70
2022/06/04 01:44:59;;;;;;;2.45;0.47;;;;;;;;;;5347237;27;20022;-70
2022/06/04 01:47:31;;;;;;;1.65;0.47;;;;;;;;;;5347187;27;20518;-70
2022/06/04 01:50:03;;;;;;;2.65;0.50;;;;;;;;;;5347496;27;20023;-70
2022/06/04 01:52:37;;;;;;;1.55;0.50;;;;;;;;;;5346457;27;20026;-70
2022/06/04 01:55:12;;;;;;;2.83;0.60;;;;;;;;;;5347484;27;20015;-70
2022/06/04 01:57:45;;;;;;;2.13;0.68;;;;;;;;;;5346459;27;20073;-70
2022/06/04 02:00:18;;;;;;;4.55;0.60;;;;;;;;;;5347362;27;20026;-70
2022/06/04 02:02:58;;;;;;;2.15;0.50;;;;;;;;;;5347515;27;20027;-70
2022/06/04 02:05:32;;;;;;;3.67;0.60;;;;;;;;;;5346007;27;20359;-70
2022/06/04 02:08:05;;;;;;;2.22;0.60;;;;;;;;;;5347210;27;20042;-70
2022/06/04 02:10:40;;;;;;;2.22;0.65;;;;;;;;;;5347079;27;20484;-70
2022/06/04 02:13:12;;;;;;;1.83;0.50;;;;;;;;;;5346540;27;20388;-70
2022/06/04 02:16:03;;;;;;;3.63;0.60;;;;;;;;;;5346913;27;20022;-70
2022/06/04 02:18:35;;;;;;;1.95;0.68;;;;;;;;;;5328148;27;20031;-70
2022/06/04 02:21:06;;;;;;;4.97;0.70;;;;;;;;;;5347084;27;20084;-71
2022/06/04 02:23:38;;;;;;;1.77;0.65;;;;;;;;;;5347088;27;20015;-70
2022/06/04 02:26:09;;;;;;;1.55;0.40;;;;;;;;;;5346175;27;20022;-70
2022/06/04 02:28:41;;;;;;;3.08;0.70;;;;;;;;;;5346716;27;20019;-70
2022/06/04 02:31:39;;;;;;;2.42;0.65;;;;;;;;;;5346498;27;20109;-70
2022/06/04 02:34:10;;;;;;;2.40;0.60;;;;;;;;;;5340606;27;20122;-70
2022/06/04 02:36:41;;;;;;;1.42;0.52;;;;;;;;;;5346683;27;20060;-70
2022/06/04 02:39:15;;;;;;;9.93;0.75;;;;;;;;;;5346542;27;20261;-70
2022/06/04 02:41:52;;;;;;;2.17;0.75;;;;;;;;;;5345585;27;20295;-70
2022/06/04 02:44:27;;;;;;;3.20;0.80;;;;;;;;;;5346321;27;20008;-70
2022/06/04 02:46:58;;;;;;;1.80;0.70;;;;;;;;;;5345854;27;20025;-70
2022/06/04 02:49:36;;;;;;;3.50;0.80;;;;;;;;;;5346005;27;20054;-70
2022/06/04 02:52:09;;;;;;;5.15;1.02;;;;;;;;;;5346161;27;20272;-70
2022/06/04 02:54:48;;;;;;;4.07;0.77;;;;;;;;;;5345503;27;20022;-70
2022/06/04 02:57:19;;;;;;;4.82;0.90;;;;;;;;;;5346045;27;20027;-70
2022/06/04 02:59:50;;;;;;;4.38;1.17;;;;;;;;;;5346358;27;20034;-70
2022/06/04 03:02:23;;;;;;;3.35;0.75;;;;;;;;;;5344791;27;20030;-70
2022/06/04 03:04:56;;;;;;;7.85;1.13;;;;;;;;;;5346490;27;20068;-70
2022/06/04 03:07:27;;;;;;;3.22;1.00;;;;;;;;;;5345838;27;20120;-70
2022/06/04 03:10:00;;;;;;;3.17;0.90;;;;;;;;;;5345569;27;20031;-70
2022/06/04 03:12:31;;;;;;;3.00;0.80;;;;;;;;;;5345722;27;20102;-70
2022/06/04 03:15:03;;;;;;;3.30;0.90;;;;;;;;;;5344713;27;20102;-70
2022/06/04 03:17:34;;;;;;;3.25;1.10;;;;;;;;;;5345168;27;20376;-70
2022/06/04 03:20:07;;;;;;;5.22;1.38;;;;;;;;;;5345709;27;20098;-70
2022/06/04 03:22:38;;;;;;;3.53;1.65;;;;;;;;;;5326362;27;20027;-70
2022/06/04 03:25:10;;;;;;;2.20;0.90;;;;;;;;;;5345541;27;20026;-70
2022/06/04 03:27:41;;;;;;;5.93;1.20;;;;;;;;;;5345518;27;20015;-70
2022/06/04 03:30:12;;;;;;;3.97;1.35;;;;;;;;;;5344946;27;20141;-70
2022/06/04 03:32:44;;;;;;;3.33;1.50;;;;;;;;;;5345603;27;20022;-70
2022/06/04 03:35:16;;;;;;;4.25;1.52;;;;;;;;;;5345526;27;20027;-70
2022/06/04 03:37:47;;;;;;;3.92;1.52;;;;;;;;;;5344480;27;20015;-70
2022/06/04 03:40:19;;;;;;;3.25;1.73;;;;;;;;;;5345185;27;20343;-71
2022/06/04 03:42:50;;;;;;;7.28;1.95;;;;;;;;;;5345420;27;20022;-70
2022/06/04 03:45:24;;;;;;;7.50;1.57;;;;;;;;;;5344317;27;20327;-70
2022/06/04 03:47:56;;;;;;;4.55;1.85;;;;;;;;;;5345525;27;20265;-70
2022/06/04 03:50:29;;;;;;;5.68;1.60;;;;;;;;;;5344062;27;20023;-70
2022/06/04 03:53:00;;;;;;;5.05;1.70;;;;;;;;;;5345363;27;20504;-70
2022/06/04 03:55:31;;;;;;;6.37;1.80;;;;;;;;;;5345181;27;20094;-70
2022/06/04 03:58:03;;;;;;;5.63;1.85;;;;;;;;;;5344465;27;20269;-71
2022/06/04 04:00:35;;;;;;;5.95;1.90;;;;;;;;;;5345042;27;20114;-71
2022/06/04 04:03:09;;;;;;;4.65;1.58;;;;;;;;;;5345138;27;20064;-71
2022/06/04 04:05:45;;;;;;;7.65;1.88;;;;;;;;;;5344444;27;20419;-70
2022/06/04 04:08:17;;;;;;;5.55;1.80;;;;;;;;;;5344960;27;20106;-70
2022/06/04 04:10:48;;;;;;;4.35;2.15;;;;;;;;;;5344809;27;20019;-70
2022/06/04 04:13:20;;;;;;;5.57;2.20;;;;;;;;;;5343732;27;20473;-69
2022/06/04 04:15:51;;;;;;;5.60;2.28;;;;;;;;;;5345089;27;20054;-71
2022/06/04 04:18:22;;;;;;;5.47;1.92;;;;;;;;;;5343860;28;20016;-70
2022/06/04 04:20:53;;;;;;;4.65;2.13;;;;;;;;;;5344825;27;20037;-71
2022/06/04 04:23:25;;;;;;;5.70;2.40;;;;;;;;;;5344336;28;20023;-71
2022/06/04 04:25:56;;;;;;;6.20;1.83;;;;;;;;;;5344207;27;20039;-70
2022/06/04 04:28:27;;;;;;;4.15;2.10;;;;;;;;;;5346615;27;20627;-70
2022/06/04 04:30:59;;;;;;;4.75;1.85;;;;;;;;;;5349467;27;20060;-72
2022/06/04 04:33:30;;;;;;;5.97;2.13;;;;;;;;;;5347853;27;20354;-69
2022/06/04 04:36:01;;;;;;;6.63;2.10;;;;;;;;;;5349035;27;20373;-70
2022/06/04 04:38:32;;;;;;;8.32;2.20;;;;;;;;;;5348963;27;20261;-70
2022/06/04 04:41:10;;;;;;;6.30;2.65;;;;;;;;;;5348287;27;20073;-69
2022/06/04 04:43:41;;;;;;;4.50;2.22;;;;;;;;;;5348892;27;20023;-68
2022/06/04 04:46:13;;;;;;;6.55;2.70;;;;;;;;;;5348882;27;20072;-68
2022/06/04 04:48:45;;;;;;;5.47;2.20;;;;;;;;;;5348076;27;20011;-68
2022/06/04 04:51:22;;;;;;;6.18;2.63;;;;;;;;;;5348848;27;20050;-69
2022/06/04 04:53:54;;;;;;;4.70;2.58;;;;;;;;;;5348406;27;20012;-69
2022/06/04 04:56:26;;;;;;;3.38;1.88;;;;;;;;;;5348376;27;20050;-69
2022/06/04 04:58:57;;;;;;;8.35;2.58;;;;;;;;;;5348788;27;20134;-69
2022/06/04 05:01:28;;;;;;;9.05;2.92;;;;;;;;;;5347368;27;20059;-69
2022/06/04 05:03:59;;;;;;;7.22;2.80;;;;;;;;;;5348699;27;20442;-69
2022/06/04 05:06:31;;;;;;;10.52;3.28;;;;;;;;;;5348129;27;20359;-70
2022/06/04 05:09:02;;;;;;;8.27;2.75;;;;;;;;;;5347818;27;20023;-70
2022/06/04 05:11:34;;;;;;;5.72;3.08;;;;;;;;;;5348115;27;20050;-68
2022/06/04 05:14:05;;;;;;;5.47;2.92;;;;;;;;;;5348456;27;20091;-69
2022/06/04 05:16:37;;;;;;;5.57;2.53;;;;;;;;;;5347449;27;20085;-69
2022/06/04 05:19:08;;;;;;;5.30;3.15;;;;;;;;;;5348245;27;20014;-69
2022/06/04 05:21:47;;;;;;;8.10;3.13;;;;;;;;;;5347419;27;20046;-69
2022/06/04 05:24:18;;;;;;;7.28;2.95;;;;;;;;;;5347635;27;20030;-69
2022/06/04 05:26:50;;;;;;;6.70;2.85;;;;;;;;;;5348376;27;20019;-69
2022/06/04 05:29:22;;;;;;;6.25;3.45;;;;;;;;;;5347101;27;20015;-68
2022/06/04 05:31:53;;;;;;;5.72;2.80;;;;;;;;;;5348300;27;20501;-69
2022/06/04 05:34:25;;;;;;;6.07;2.80;;;;;;;;;;5347462;27;20054;-69
2022/06/04 05:36:57;;;;;;;6.60;3.20;;;;;;;;;;5347377;27;20339;-69
2022/06/04 05:39:31;;;;;;;7.03;3.25;;;;;;;;;;5347153;27;20022;-69
2022/06/04 05:42:03;;;;;;;6.90;3.25;;;;;;;;;;5347809;27;20027;-69
2022/06/04 05:44:35;;;;;;;8.85;3.72;;;;;;;;;;5346893;27;20394;-68
2022/06/04 05:47:06;;;;;;;7.70;3.13;;;;;;;;;;5347451;27;20019;-70
2022/06/04 05:49:37;;;;;;;6.57;3.60;;;;;;;;;;5347119;27;20425;-69
2022/06/04 05:52:09;;;;;;;10.05;4.25;;;;;;;;;;5347728;27;20033;-69
2022/06/04 05:54:40;;;;;;;6.63;3.50;;;;;;;;;;5347739;27;20018;-69
2022/06/04 05:57:11;;;;;;;8.20;3.33;;;;;;;;;;5346707;27;20479;-69
2022/06/04 05:59:42;;;;;;;6.93;3.60;;;;;;;;;;5347356;27;20385;-68
2022/06/04 06:02:13;;;;;;;7.57;4.23;;;;;;;;;;5347462;27;20337;-69
2022/06/04 06:04:45;;;;;;;6.70;3.20;;;;;;;;;;5346716;27;20272;-70
2022/06/04 06:07:16;;;;;;;7.70;3.95;;;;;;;;;;5347384;27;20351;-69
2022/06/04 06:09:47;;;;;;;4.60;3.70;;;;;;;;;;5347188;27;20060;-69
2022/06/04 06:12:18;;;;;;;7.40;3.08;;;;;;;;;;5346059;27;20015;-70
2022/06/04 06:14:49;;;;;;;5.47;2.93;;;;;;;;;;5347581;27;20042;-69
2022/06/04 06:17:21;;;;;;;7.85;3.95;;;;;;;;;;5346680;27;20280;-70
2022/06/04 06:19:53;;;;;;;11.35;4.25;;;;;;;;;;5346519;27;20011;-69
2022/06/04 06:22:24;;;;;;;5.65;3.67;;;;;;;;;;5346565;27;20019;-70
2022/06/04 06:24:56;;;;;;;9.80;5.70;;;;;;;;;;5346652;27;20015;-69
2022/06/04 06:27:28;;;;;;;7.38;4.05;;;;;;;;;;5346623;27;20771;-71
2022/06/04 06:29:59;;;;;;;7.43;4.20;;;;;;;;;;5347257;27;20027;-69
2022/06/04 06:32:30;;;;;;;8.67;4.90;;;;;;;;;;5345752;27;20027;-68
2022/06/04 06:35:02;;;;;;;6.80;3.72;;;;;;;;;;5346728;27;20374;-70
2022/06/04 06:37:33;;;;;;;9.70;4.60;;;;;;;;;;5346651;27;20098;-70
2022/06/04 06:40:05;;;;;;;11.30;4.68;;;;;;;;;;5345864;27;20046;-70
2022/06/04 06:42:36;;;;;;;8.05;4.80;;;;;;;;;;5346464;27;20027;-70
2022/06/04 06:45:08;;;;;;;11.43;4.80;;;;;;;;;;5346454;27;20042;-70
2022/06/04 06:47:40;;;;;;;7.38;4.72;;;;;;;;;;5345739;27;20019;-70
2022/06/04 06:50:13;;;;;;;12.40;5.15;;;;;;;;;;5345597;27;20473;-70
2022/06/04 06:52:44;;;;;;;8.93;4.32;;;;;;;;;;5346133;27;20037;-69
2022/06/04 06:55:15;;;;;;;13.70;5.78;;;;;;;;;;5345551;27;20464;-69
2022/06/04 06:57:47;;;;;;;6.22;4.60;;;;;;;;;;5346134;27;20051;-70
2022/06/04 07:00:18;;;;;;;8.02;5.40;;;;;;;;;;5345380;27;20110;-70
2022/06/04 07:02:49;;;;;;;8.82;4.88;;;;;;;;;;5346508;27;20037;-70
2022/06/04 07:05:20;;;;;;;8.82;5.05;;;;;;;;;;5345784;27;20018;-70
2022/06/04 07:07:52;;;;;;;7.97;5.22;;;;;;;;;;5345391;27;20019;-69
2022/06/04 07:10:23;;;;;;;9.45;5.07;;;;;;;;;;5345518;27;20044;-69
2022/06/04 07:12:54;;;;;;;8.88;5.55;;;;;;;;;;5346378;27;20027;-70
2022/06/04 07:15:25;;;;;;;8.93;5.22;;;;;;;;;;5345098;27;20030;-70
2022/06/04 07:17:56;;;;;;;9.50;5.77;;;;;;;;;;5345866;27;20047;-70
2022/06/04 07:20:28;;;;;;;7.88;5.80;;;;;;;;;;5345076;27;20345;-70
2022/06/04 07:22:59;;;;;;;8.00;5.63;;;;;;;;;;5344966;27;20072;-70
2022/06/04 07:25:30;;;;;;;8.60;6.03;;;;;;;;;;5345069;27;20038;-71
2022/06/04 07:28:01;;;;;;;6.63;5.53;;;;;;;;;;5345464;27;20736;-71
2022/06/04 07:30:32;;;;;;;8.05;5.22;;;;;;;;;;5344819;27;20015;-70
2022/06/04 07:33:04;;;;;;;8.30;5.88;;;;;;;;;;5345696;27;20023;-71
2022/06/04 07:35:35;;;;;;;7.82;5.70;;;;;;;;;;5344392;27;20271;-69
2022/06/04 07:38:06;;;;;;;7.57;5.57;;;;;;;;;;5345396;27;20012;-70
2022/06/04 07:40:38;;;;;;;9.48;5.72;;;;;;;;;;5345292;27;20043;-71
2022/06/04 07:43:09;;;;;;;10.55;5.97;;;;;;;;;;5344378;27;20054;-70
2022/06/04 07:45:41;;;;;;;8.48;6.20;;;;;;;;;;5345155;27;20508;-70
2022/06/04 07:48:12;;;;;;;11.05;6.28;;;;;;;;;;5345064;27;20023;-68
2022/06/04 07:50:44;;;;;;;10.05;6.43;;;;;;;;;;5344567;27;20044;-70
2022/06/04 07:53:15;;;;;;;7.95;5.55;;;;;;;;;;5345228;27;20011;-70
2022/06/04 07:55:46;;;;;;;7.35;5.25;;;;;;;;;;5345075;27;20018;-68
2022/06/04 07:58:17;;;;;;;9.90;5.97;;;;;;;;;;5344247;27;20015;-68
2022/06/04 08:00:55;;;;;;;8.80;5.22;;;;;;;;;;5345081;27;20371;-70
2022/06/04 08:03:26;;;;;;;9.98;5.80;;;;;;;;;;5343586;27;20015;-68
2022/06/04 08:05:57;;;;;;;7.72;5.43;;;;;;;;;;5345178;27;20011;-68
2022/06/04 08:08:29;;;;;;;9.30;5.77;;;;;;;;;;5344539;27;20033;-69
2022/06/04 08:11:01;;;;;;;8.45;5.32;;;;;;;;;;5344161;27;20863;-69
2022/06/04 08:13:32;;;;;;;8.75;5.80;;;;;;;;;;5344836;27;20042;-69
2022/06/04 08:16:03;;;;;;;9.03;6.13;;;;;;;;;;5344812;27;20073;-69
2022/06/04 08:18:34;;;;;;;6.95;6.13;;;;;;;;;;5343859;28;20280;-70
2022/06/04 08:21:06;;;;;;;8.18;5.78;;;;;;;;;;5344466;28;20028;-69
2022/06/04 08:23:39;;;;;;;14.43;6.53;;;;;;;;;;5344875;28;20890;-69
2022/06/04 08:26:12;;;;;;;10.27;6.30;;;;;;;;;;5343835;28;20030;-69
2022/06/04 08:28:43;;;;;;;10.38;6.45;;;;;;;;;;5344464;28;20015;-69
2022/06/04 08:31:15;;;;;;;9.05;6.55;;;;;;;;;;5344552;27;20484;-69
2022/06/04 08:33:46;;;;;;;13.15;6.05;;;;;;;;;;5343922;27;20061;-69
2022/06/04 08:36:19;;;;;;;9.10;6.32;;;;;;;;;;5344880;27;20019;-69
2022/06/04 08:38:50;;;;;;;8.75;6.40;;;;;;;;;;5339354;28;20133;-69
2022/06/04 08:41:40;;;;;;;8.75;6.00;;;;;;;;;;5343396;28;20027;-69
2022/06/04 08:44:18;;;;;;;10.98;6.28;;;;;;;;;;5344073;28;20024;-69
2022/06/04 08:46:56;;;;;;;12.27;6.35;;;;;;;;;;5344063;28;20050;-69
2022/06/04 08:49:48;;;;;;;12.63;6.28;;;;;;;;;;5344229;28;20084;-69
2022/06/04 08:52:21;;;;;;;9.25;6.18;;;;;;;;;;5344049;28;20384;-70
2022/06/04 08:58:04;;;;;;;8.82;6.20;;;;;;;;;;5344596;28;20031;-71
2022/06/04 09:00:40;;;;;;;9.35;5.88;;;;;;;;;;5343299;28;20423;-70
2022/06/04 09:03:34;;;;;;;8.88;5.55;;;;;;;;;;5344198;28;20044;-70
2022/06/04 09:06:15;;;;;;;12.60;5.60;;;;;;;;;;5344340;28;20046;-71
2022/06/04 09:08:52;;;;;;;7.78;5.38;;;;;;;;;;5343382;28;20023;-71
2022/06/04 09:11:29;;;;;;;10.13;4.75;;;;;;;;;;5343493;28;20388;-71
2022/06/04 09:14:11;;;;;;;9.30;5.47;;;;;;;;;;5344798;27;20026;-71
2022/06/04 09:16:49;;;;;;;8.25;5.25;;;;;;;;;;5348010;27;20047;-71
2022/06/04 09:19:22;;;;;;;7.57;4.88;;;;;;;;;;5347671;27;20110;-71
2022/06/04 09:21:55;;;;;;;7.63;5.30;;;;;;;;;;5347348;27;20493;-70
2022/06/04 09:24:26;;;;;;;8.52;5.18;;;;;;;;;;5347895;27;20378;-70
2022/06/04 09:27:04;;;;;;;8.07;5.60;;;;;;;;;;5348315;27;20023;-71
2022/06/04 09:29:35;;;;;;;10.15;5.18;;;;;;;;;;5346752;27;20356;-72
2022/06/04 09:32:12;;;;;;;8.25;5.85;;;;;;;;;;5347963;27;20097;-71
2022/06/04 09:34:49;;;;;;;7.68;5.45;;;;;;;;;;5347027;27;20030;-71
2022/06/04 09:37:21;;;;;;;6.50;5.60;;;;;;;;;;5347558;27;20136;-69
2022/06/04 09:40:04;;;;;;;6.57;5.45;;;;;;;;;;5348147;27;20106;-71
2022/06/04 09:42:36;;;;;;;8.13;4.60;;;;;;;;;;5346687;27;20085;-70
2022/06/04 09:45:16;;;;;;;9.73;5.15;;;;;;;;;;5347626;27;20061;-70
2022/06/04 09:47:49;;;;;;;9.30;5.28;;;;;;;;;;5347373;27;20145;-70
2022/06/04 09:50:26;;;;;;;6.55;5.05;;;;;;;;;;5346243;27;20054;-71
2022/06/04 09:53:03;;;;;;;8.57;4.78;;;;;;;;;;5347706;27;20037;-70
2022/06/04 09:55:35;;;;;;;9.13;4.90;;;;;;;;;;5347518;27;20422;-70
2022/06/04 09:58:17;;;;;;;7.82;5.90;;;;;;;;;;5346810;27;20011;-70
2022/06/04 10:01:02;;;;;;;8.32;6.57;;;;;;;;;;5347443;27;20163;-71
2022/06/04 10:03:36;;;;;;;10.70;5.97;;;;;;;;;;5346434;27;20026;-70
2022/06/04 10:06:09;;;;;;;8.32;6.47;;;;;;;;;;5347455;27;20015;-69
2022/06/04 10:12:05;;;;;;;9.40;5.90;;;;;;;;;;5307121;27;20032;-70
2022/06/04 10:14:37;;;;;;;8.65;6.45;;;;;;;;;;5347431;27;20015;-71
2022/06/04 10:17:19;;;;;;;8.48;6.45;;;;;;;;;;5346417;27;20039;-71
2022/06/04 10:19:52;;;;;;;9.45;6.70;;;;;;;;;;5347312;27;20111;-70
2022/06/04 10:22:23;;;;;;;7.85;6.13;;;;;;;;;;5346850;27;20035;-71
2022/06/04 10:24:55;;;;;;;8.27;6.80;;;;;;;;;;5346614;27;20013;-70
2022/06/04 10:27:39;;;;;;;8.95;6.30;;;;;;;;;;5346541;27;20062;-70
2022/06/04 10:30:32;;;;;;;11.85;6.82;;;;;;;;;;5346659;27;20019;-70
2022/06/04 10:33:08;;;;;;;8.00;6.80;;;;;;;;;;5346259;27;20025;-71
2022/06/04 10:36:01;;;;;;;7.43;6.47;;;;;;;;;;5346780;27;20330;-70
2022/06/04 10:38:47;;;;;;;8.35;7.43;;;;;;;;;;5345949;27;20061;-69
2022/06/04 10:41:26;;;;;;;9.90;7.07;;;;;;;;;;5345999;27;20031;-70
2022/06/04 10:44:13;;;;;;;10.40;7.43;;;;;;;;;;5346581;27;20019;-70
2022/06/04 10:46:57;;;;;;;12.38;6.28;;;;;;;;;;5345991;27;20046;-71
2022/06/04 10:49:32;;;;;;;8.73;6.57;;;;;;;;;;5346195;27;20521;-70
2022/06/04 10:52:22;;;;;;;11.07;6.47;;;;;;;;;;5345806;27;20019;-70
2022/06/04 10:54:56;;;;;;;9.45;6.68;;;;;;;;;;5346880;27;20073;-70
2022/06/04 10:57:31;;;;;;;13.70;7.70;;;;;;;;;;5345752;27;20023;-69
2022/06/04 11:00:18;;;;;;;9.75;6.57;;;;;;;;;;5345591;27;20053;-69
2022/06/04 11:02:52;;;;;;;10.32;6.15;;;;;;;;;;5346311;27;20023;-68
2022/06/04 11:05:26;;;;;;;8.43;7.00;;;;;;;;;;5345566;27;20054;-69
2022/06/04 11:08:05;;;;;;;8.50;7.07;;;;;;;;;;5345423;27;20107;-69
2022/06/04 11:10:45;;;;;;;7.95;6.80;;;;;;;;;;5346003;27;20023;-69
2022/06/04 11:13:38;;;;;;;9.68;6.65;;;;;;;;;;5345393;27;20019;-70
2022/06/04 11:16:12;;;;;;;7.45;5.78;;;;;;;;;;5345368;27;20447;-70
2022/06/04 11:18:48;;;;;;;10.60;6.90;;;;;;;;;;5345636;27;20023;-71
2022/06/04 11:21:25;;;;;;;8.40;6.82;;;;;;;;;;5344426;27;20409;-71
2022/06/04 11:23:56;;;;;;;10.38;6.82;;;;;;;;;;5346195;27;20015;-71
2022/06/04 11:26:48;;;;;;;8.70;6.68;;;;;;;;;;5345456;27;20040;-71
2022/06/04 11:29:20;;;;;;;7.03;5.57;;;;;;;;;;5344664;27;20078;-71
2022/06/04 11:31:58;;;;;;;7.75;6.97;;;;;;;;;;5345885;27;20046;-71
2022/06/04 11:34:39;;;;;;;7.13;6.38;;;;;;;;;;5344539;27;20023;-71
2022/06/04 11:37:13;;;;;;;7.95;6.30;;;;;;;;;;5345057;27;20404;-71
2022/06/04 11:39:47;;;;;;;8.60;7.07;;;;;;;;;;5345482;27;20023;-71
2022/06/04 11:42:36;;;;;;;9.40;6.43;;;;;;;;;;5344447;27;20077;-71
2022/06/04 11:45:23;;;;;;;7.68;6.88;;;;;;;;;;5345373;27;20102;-71
2022/06/04 11:48:06;;;;;;;8.25;6.60;;;;;;;;;;5345809;27;20026;-70
2022/06/04 11:50:41;;;;;;;7.57;6.82;;;;;;;;;;5344656;27;20051;-71
2022/06/04 11:53:29;;;;;;;6.72;6.10;;;;;;;;;;5345238;27;20019;-71
2022/06/04 11:56:19;;;;;;;9.95;7.13;;;;;;;;;;5344655;27;20376;-71
2022/06/04 11:58:56;;;;;;;9.32;6.75;;;;;;;;;;5345319;27;20023;-72
2022/06/04 12:01:30;;;;;;;8.90;6.18;;;;;;;;;;5344802;27;20019;-70
2022/06/04 12:04:06;;;;;;;8.93;6.13;;;;;;;;;;5344241;27;20019;-70
2022/06/04 12:06:41;;;;;;;7.38;6.63;;;;;;;;;;5345173;27;20027;-70
2022/06/04 12:09:22;;;;;;;11.93;6.72;;;;;;;;;;5345327;27;20095;-69
2022/06/04 12:12:03;;;;;;;8.85;6.82;;;;;;;;;;5344910;27;20019;-70
2022/06/04 12:14:37;;;;;;;10.15;6.72;;;;;;;;;;5344763;27;20015;-70
2022/06/04 12:17:14;;;;;;;10.45;6.70;;;;;;;;;;5344010;27;20051;-70
2022/06/04 12:25:44;;;;;;;10.32;7.32;;;;;;;;;;5344114;28;20035;-70
2022/06/04 12:28:29;;;;;;;7.45;5.78;;;;;;;;;;5344588;28;20022;-70
2022/06/04 12:31:00;;;;;;;10.35;6.65;;;;;;;;;;5344317;28;20031;-74
2022/06/04 12:33:36;;;;;;;10.70;6.53;;;;;;;;;;5344648;28;20331;-71
2022/06/04 12:36:12;;;;;;;9.07;6.35;;;;;;;;;;5344683;28;20114;-72
2022/06/04 12:38:44;;;;;;;10.23;6.80;;;;;;;;;;5344286;28;20003;-72
2022/06/04 12:41:17;;;;;;;8.02;6.03;;;;;;;;;;5344701;28;20039;-72
2022/06/04 12:43:59;;;;;;;11.02;6.28;;;;;;;;;;5344626;28;20062;-72
2022/06/04 12:46:33;;;;;;;10.38;6.60;;;;;;;;;;5343697;28;20106;-73
2022/06/04 12:49:14;;;;;;;10.73;7.00;;;;;;;;;;5346168;27;20019;-75
2022/06/04 12:52:04;;;;;;;9.00;6.63;;;;;;;;;;5348205;27;20079;-72
2022/06/04 12:54:50;;;;;;;15.57;7.25;;;;;;;;;;5348650;27;20054;-72
2022/06/04 12:57:34;;;;;;;10.55;6.22;;;;;;;;;;5348539;27;20018;-71
2022/06/04 13:00:25;;;;;;;8.63;6.55;;;;;;;;;;5347802;27;20072;-71
2022/06/04 13:02:56;;;;;;;12.98;6.68;;;;;;;;;;5348916;27;20035;-71
2022/06/04 13:05:28;;;;;;;9.90;6.38;;;;;;;;;;5348263;27;20378;-71
2022/06/04 13:08:01;;;;;;;9.23;6.57;;;;;;;;;;5348117;27;20438;-71
2022/06/04 13:10:57;;;;;;;8.50;6.07;;;;;;;;;;5348478;27;20052;-72
2022/06/04 13:13:41;;;;;;;6.35;5.65;;;;;;;;;;5347155;27;20026;-72
2022/06/04 13:16:24;;;;;;;8.70;5.75;;;;;;;;;;5348335;27;20051;-71
2022/06/04 13:19:07;;;;;;;7.60;5.75;;;;;;;;;;5348696;27;20027;-71
2022/06/04 13:21:41;;;;;;;9.18;4.85;;;;;;;;;;5347628;27;20496;-72
2022/06/04 13:24:16;;;;;;;8.35;5.93;;;;;;;;;;5348482;27;20094;-70
2022/06/04 13:26:48;;;;;;;7.00;5.63;;;;;;;;;;5347480;27;20027;-72
2022/06/04 13:29:19;;;;;;;7.53;4.72;;;;;;;;;;5347640;27;20030;-72
2022/06/04 13:31:56;;;;;;;6.88;4.50;;;;;;;;;;5348502;27;20365;-71
2022/06/04 13:34:30;;;;;;;7.35;4.93;;;;;;;;;;5347080;27;20023;-72
2022/06/04 13:37:03;;;;;;;8.82;4.05;;;;;;;;;;5347798;27;20015;-70
2022/06/04 13:39:35;;;;;;;6.63;4.43;;;;;;;;;;5347606;27;20019;-71
2022/06/04 13:42:27;;;;;;;9.00;4.82;;;;;;;;;;5347332;27;20037;-70
2022/06/04 13:44:59;;;;;;;8.15;4.82;;;;;;;;;;5347711;27;20031;-70
2022/06/04 13:47:36;;;;;;;8.32;4.25;;;;;;;;;;5347454;27;20015;-71
2022/06/04 13:50:10;;;;;;;7.53;5.28;;;;;;;;;;5346790;27;20019;-70
2022/06/04 13:52:48;;;;;;;6.70;4.65;;;;;;;;;;5347618;27;20019;-70
2022/06/04 13:55:47;;;;;;;5.35;4.00;;;;;;;;;;5347057;27;20019;-71
2022/06/04 13:58:28;;;;;;;11.63;4.72;;;;;;;;;;5347311;27;20015;-71
2022/06/04 14:01:05;;;;;;;8.43;5.63;;;;;;;;;;5347373;27;20076;-70
2022/06/04 14:03:39;;;;;;;7.43;4.75;;;;;;;;;;5346720;27;20055;-70
2022/06/04 14:06:10;;;;;;;11.02;5.32;;;;;;;;;;5347289;27;20138;-73
2022/06/04 14:08:52;;;;;;;9.48;5.43;;;;;;;;;;5347318;27;20610;-74
2022/06/04 14:11:23;;;;;;;6.72;4.78;;;;;;;;;;5346387;27;20037;-75
2022/06/04 14:14:13;;;;;;;8.23;4.35;;;;;;;;;;5347914;27;20019;-75
2022/06/04 14:17:02;;;;;;;13.60;5.43;;;;;;;;;;5346420;27;20042;-75
2022/06/04 14:19:49;;;;;;;7.07;4.07;;;;;;;;;;5347192;27;20378;-72
2022/06/04 14:22:20;;;;;;;8.05;4.35;;;;;;;;;;5346777;27;20030;-73
2022/06/04 14:25:06;;;;;;;7.03;4.70;;;;;;;;;;5346717;27;20202;-74
2022/06/04 14:27:56;;;;;;;5.32;4.32;;;;;;;;;;5347120;27;20517;-75
2022/06/04 14:30:37;;;;;;;7.10;4.60;;;;;;;;;;5346172;27;20365;-75
2022/06/04 14:33:19;;;;;;;6.80;4.47;;;;;;;;;;5347078;27;20054;-70
2022/06/04 14:36:04;;;;;;;9.65;3.88;;;;;;;;;;5347296;27;20024;-70
2022/06/04 14:38:36;;;;;;;8.10;4.82;;;;;;;;;;5346199;27;20094;-71
2022/06/04 14:41:10;;;;;;;8.13;4.60;;;;;;;;;;5347011;27;20239;-71
2022/06/04 14:43:59;;;;;;;5.65;3.72;;;;;;;;;;5346787;27;20015;-71
2022/06/04 14:46:49;;;;;;;10.10;4.72;;;;;;;;;;5345488;27;20110;-71
2022/06/04 14:49:30;;;;;;;7.63;4.30;;;;;;;;;;5346361;27;20071;-70
2022/06/04 14:52:01;;;;;;;8.15;4.25;;;;;;;;;;5346017;27;20026;-72
2022/06/04 14:54:34;;;;;;;7.25;4.20;;;;;;;;;;5346420;27;20102;-71
2022/06/04 14:57:17;;;;;;;5.93;3.47;;;;;;;;;;5346403;27;20034;-72
2022/06/04 14:59:57;;;;;;;5.80;3.00;;;;;;;;;;5345868;27;20023;-70
2022/06/04 15:02:51;;;;;;;8.75;3.33;;;;;;;;;;5345996;27;20030;-71
2022/06/04 15:05:41;;;;;;;6.45;3.42;;;;;;;;;;5297106;27;20027;-71
2022/06/04 15:08:32;;;;;;;4.38;2.42;;;;;;;;;;5346346;27;20107;-71
2022/06/04 15:11:22;;;;;;;8.77;3.30;;;;;;;;;;5345668;27;20027;-70
2022/06/04 15:13:59;;;;;;;6.40;2.97;;;;;;;;;;5346010;27;20026;-70
2022/06/04 15:16:48;;;;;;;8.27;2.10;;;;;;;;;;5345624;27;20047;-71
2022/06/04 15:19:28;;;;;;;6.30;2.47;;;;;;;;;;5344894;27;20022;-71
2022/06/04 15:22:22;;;;;;;7.43;2.47;;;;;;;;;;5345774;27;20038;-71
2022/06/04 15:24:54;;;;;;;6.18;2.67;;;;;;;;;;5298076;27;20031;-71
2022/06/04 15:27:46;;;;;;;7.53;2.77;;;;;;;;;;5344818;27;20030;-71
2022/06/04 15:36:16;;;;;;;7.80;1.60;;;;;;;;;;5345878;27;20430;-71
2022/06/04 15:39:02;;;;;;;2.83;1.77;;;;;;;;;;5345598;27;20026;-70
2022/06/04 15:41:34;;;;;;;6.68;2.13;;;;;;;;;;5344930;27;20374;-72
2022/06/04 15:44:05;;;;;;;5.45;2.55;;;;;;;;;;5345644;27;20023;-73
2022/06/04 15:46:39;;;;;;;2.25;1.40;;;;;;;;;;5345559;27;20027;-72
2022/06/04 15:49:17;;;;;;;5.88;1.75;;;;;;;;;;5344517;27;20501;-72
2022/06/04 15:57:41;;;;;;;3.85;1.50;;;;;;;;;;5345619;27;20457;-72
2022/06/04 16:00:17;;;;;;;3.65;1.73;;;;;;;;;;5345356;27;20046;-72
2022/06/04 16:02:49;;;;;;;3.97;2.17;;;;;;;;;;5344837;27;20365;-72